createdAt,value
2018-05-14T00:01:53.100Z,99745.67
2018-05-14T00:04:20.499Z,99746.47
2018-05-14T00:06:47.911Z,99738.17
2018-05-14T00:09:15.306Z,99751.64
2018-05-14T00:11:42.694Z,99746.72
2018-05-14T00:14:10.119Z,99739.16
2018-05-14T00:16:37.478Z,99746.31
2018-05-14T00:19:04.890Z,99738.91
2018-05-14T00:21:32.291Z,99736.03
2018-05-14T00:23:59.691Z,99733.08
2018-05-14T00:26:27.091Z,99728.21
2018-05-14T00:28:54.483Z,99729.10
2018-05-14T00:31:21.882Z,99721.70
2018-05-14T00:33:49.279Z,99725.92
2018-05-14T00:36:16.682Z,99729.23
2018-05-14T00:38:44.070Z,99714.69
2018-05-14T00:41:11.470Z,99716.34
2018-05-14T00:43:38.859Z,99712.59
2018-05-14T00:46:06.251Z,99709.37
2018-05-14T00:48:33.659Z,99706.64
2018-05-14T00:51:01.049Z,99700.02
2018-05-14T00:53:28.439Z,99702.08
2018-05-14T00:55:55.926Z,99701.95
2018-05-14T00:58:23.318Z,99699.96
2018-05-14T01:00:50.711Z,99705.21
2018-05-14T01:03:18.110Z,99703.61
2018-05-14T01:05:45.619Z,99703.98
2018-05-14T01:08:13.032Z,99705.27
2018-05-14T01:10:40.415Z,99702.30
2018-05-14T01:13:07.807Z,99716.39
2018-05-14T01:15:35.202Z,99713.07
2018-05-14T01:18:02.591Z,99717.52
2018-05-14T01:20:29.991Z,99710.67
2018-05-14T01:22:57.376Z,99708.28
2018-05-14T01:25:24.775Z,99707.77
2018-05-14T01:27:52.163Z,99701.20
2018-05-14T01:30:19.563Z,99701.02
2018-05-14T01:32:46.951Z,99691.35
2018-05-14T01:35:14.342Z,99692.28
2018-05-14T01:37:41.735Z,99689.27
2018-05-14T01:40:09.143Z,99689.59
2018-05-14T01:42:36.543Z,99681.92
2018-05-14T01:45:03.937Z,99688.61
2018-05-14T01:47:31.339Z,99688.16
2018-05-14T01:49:58.727Z,99684.92
2018-05-14T01:52:26.139Z,99681.59
2018-05-14T01:54:53.522Z,99688.67
2018-05-14T01:57:20.935Z,99684.56
2018-05-14T01:59:48.335Z,99694.22
2018-05-14T02:02:15.731Z,99695.05
2018-05-14T02:04:43.126Z,99697.47
2018-05-14T02:07:10.519Z,99694.68
2018-05-14T02:09:37.919Z,99692.28
2018-05-14T02:12:05.311Z,99691.67
2018-05-14T02:14:32.711Z,99690.56
2018-05-14T02:17:00.103Z,99696.16
2018-05-14T02:19:27.496Z,99692.78
2018-05-14T02:21:54.888Z,99679.98
2018-05-14T02:24:22.287Z,99680.81
2018-05-14T02:26:49.675Z,99673.36
2018-05-14T02:29:17.105Z,99668.46
2018-05-14T02:31:44.479Z,99672.64
2018-05-14T02:34:11.879Z,99682.03
2018-05-14T02:36:39.271Z,99682.91
2018-05-14T02:39:06.671Z,99687.69
2018-05-14T02:41:34.203Z,99686.53
2018-05-14T02:44:01.628Z,99692.09
2018-05-14T02:46:29.018Z,99692.61
2018-05-14T02:48:56.473Z,99690.39
2018-05-14T02:51:23.863Z,99687.47
2018-05-14T02:53:51.258Z,99686.19
2018-05-14T02:56:18.751Z,99686.18
2018-05-14T02:58:46.142Z,99686.78
2018-05-14T03:01:13.542Z,99692.88
2018-05-14T03:03:40.926Z,99692.44
2018-05-14T03:06:08.319Z,99693.00
2018-05-14T03:08:35.721Z,99693.23
2018-05-14T03:11:03.111Z,99685.71
2018-05-14T03:13:30.953Z,99689.30
2018-05-14T03:15:58.339Z,99685.73
2018-05-14T03:18:25.739Z,99677.39
2018-05-14T03:20:53.135Z,99687.74
2018-05-14T03:23:20.524Z,99689.50
2018-05-14T03:25:47.921Z,99685.35
2018-05-14T03:28:15.310Z,99675.91
2018-05-14T03:30:42.738Z,99680.64
2018-05-14T03:33:10.127Z,99674.91
2018-05-14T03:35:37.552Z,99677.09
2018-05-14T03:38:04.932Z,99671.88
2018-05-14T03:40:32.320Z,99677.93
2018-05-14T03:42:59.715Z,99677.56
2018-05-14T03:45:27.103Z,99672.85
2018-05-14T03:47:54.499Z,99668.06
2018-05-14T03:50:21.891Z,99656.30
2018-05-14T03:52:49.287Z,99663.36
2018-05-14T03:55:16.674Z,99656.05
2018-05-14T03:57:44.095Z,99657.34
2018-05-14T04:00:23.207Z,99649.65
2018-05-14T04:03:02.482Z,99643.95
2018-05-14T04:05:41.590Z,99647.38
2018-05-14T04:08:09.006Z,99655.22
2018-05-14T04:10:36.390Z,99651.49
2018-05-14T04:13:03.854Z,99648.25
2018-05-14T04:15:32.079Z,99668.29
2018-05-14T04:17:59.467Z,99669.21
2018-05-14T04:20:26.863Z,99675.38
2018-05-14T04:22:54.255Z,99668.75
2018-05-14T04:25:21.651Z,99663.86
2018-05-14T04:27:49.109Z,99660.98
2018-05-14T04:30:16.572Z,99661.16
2018-05-14T04:32:43.895Z,99664.08
2018-05-14T04:35:11.294Z,99663.77
2018-05-14T04:37:38.683Z,99667.36
2018-05-14T04:40:06.071Z,99666.53
2018-05-14T04:42:33.474Z,99677.12
2018-05-14T04:45:00.858Z,99676.34
2018-05-14T04:47:28.261Z,99669.54
2018-05-14T04:49:55.654Z,99663.11
2018-05-14T04:52:23.339Z,99652.47
2018-05-14T04:54:50.741Z,99647.39
2018-05-14T04:57:18.124Z,99642.68
2018-05-14T04:59:45.523Z,99641.44
2018-05-14T05:02:12.963Z,99651.52
2018-05-14T05:04:40.366Z,99651.73
2018-05-14T05:07:07.763Z,99653.95
2018-05-14T05:09:35.169Z,99653.25
2018-05-14T05:12:02.557Z,99655.23
2018-05-14T05:14:29.954Z,99663.44
2018-05-14T05:16:57.347Z,99673.70
2018-05-14T05:19:24.739Z,99668.97
2018-05-14T05:21:52.139Z,99668.66
2018-05-14T05:24:19.527Z,99671.63
2018-05-14T05:26:46.931Z,99674.75
2018-05-14T05:29:14.319Z,99675.17
2018-05-14T05:31:41.723Z,99684.55
2018-05-14T05:34:09.115Z,99686.61
2018-05-14T05:36:36.507Z,99683.55
2018-05-14T05:39:03.899Z,99683.41
2018-05-14T05:41:31.447Z,99681.09
2018-05-14T05:43:58.836Z,99683.51
2018-05-14T05:46:26.225Z,99684.75
2018-05-14T05:48:53.875Z,99680.09
2018-05-14T05:51:21.275Z,99683.23
2018-05-14T05:53:48.671Z,99685.23
2018-05-14T05:56:16.067Z,99686.47
2018-05-14T05:58:43.466Z,99691.67
2018-05-14T06:01:10.994Z,99689.16
2018-05-14T06:03:38.300Z,99694.80
2018-05-14T06:06:05.697Z,99687.44
2018-05-14T06:08:33.099Z,99685.75
2018-05-14T06:11:00.491Z,99686.23
2018-05-14T06:13:27.882Z,99684.06
2018-05-14T06:15:55.283Z,99677.42
2018-05-14T06:18:22.706Z,99681.27
2018-05-14T06:20:50.107Z,99676.72
2018-05-14T06:23:17.505Z,99677.20
2018-05-14T06:25:44.899Z,99669.94
2018-05-14T06:28:12.286Z,99675.94
2018-05-14T06:30:39.684Z,99668.84
2018-05-14T06:33:07.075Z,99673.75
2018-05-14T06:35:34.494Z,99688.05
2018-05-14T06:38:01.867Z,99682.67
2018-05-14T06:40:29.266Z,99687.83
2018-05-14T06:42:56.659Z,99688.52
2018-05-14T06:45:24.047Z,99693.10
2018-05-14T06:47:51.455Z,99697.63
2018-05-14T06:50:18.843Z,99703.08
2018-05-14T06:52:46.243Z,99708.06
2018-05-14T06:55:13.717Z,99709.52
2018-05-14T06:57:41.034Z,99702.78
2018-05-14T07:00:08.426Z,99706.34
2018-05-14T07:02:35.975Z,99699.83
2018-05-14T07:05:03.487Z,99692.80
2018-05-14T07:07:30.743Z,99693.38
2018-05-14T07:09:58.135Z,99694.75
2018-05-14T07:12:25.535Z,99695.33
2018-05-14T07:14:52.933Z,99705.42
2018-05-14T07:17:20.315Z,99706.36
2018-05-14T07:19:47.702Z,99714.91
2018-05-14T07:22:15.088Z,99726.27
2018-05-14T07:24:42.536Z,99733.72
2018-05-14T07:27:09.846Z,99719.23
2018-05-14T07:29:37.230Z,99722.45
2018-05-14T07:32:04.624Z,99719.60
2018-05-14T07:34:32.007Z,99723.62
2018-05-14T07:36:59.390Z,99715.29
2018-05-14T07:39:26.774Z,99714.25
2018-05-14T07:41:54.162Z,99712.77
2018-05-14T07:44:21.551Z,99715.61
2018-05-14T07:46:48.930Z,99723.30
2018-05-14T07:49:16.334Z,99728.83
2018-05-14T07:51:43.719Z,99723.29
2018-05-14T07:54:11.183Z,99726.41
2018-05-14T07:56:38.562Z,99728.84
2018-05-14T07:59:05.972Z,99727.64
2018-05-14T08:01:33.355Z,99729.91
2018-05-14T08:04:00.735Z,99735.86
2018-05-14T08:06:28.123Z,99728.88
2018-05-14T08:08:55.508Z,99724.30
2018-05-14T08:11:22.904Z,99734.81
2018-05-14T08:13:50.296Z,99738.31
2018-05-14T08:16:17.684Z,99733.97
2018-05-14T08:18:45.075Z,99727.37
2018-05-14T08:21:12.463Z,99722.77
2018-05-14T08:23:39.843Z,99722.88
2018-05-14T08:26:07.243Z,99727.99
2018-05-14T08:28:34.846Z,99722.23
2018-05-14T08:31:02.238Z,99719.53
2018-05-14T08:33:29.633Z,99719.58
2018-05-14T08:35:57.094Z,99718.08
2018-05-14T08:38:24.403Z,99719.95
2018-05-14T08:40:51.798Z,99723.25
2018-05-14T08:43:19.308Z,99721.30
2018-05-14T08:45:46.829Z,99718.56
2018-05-14T08:48:13.955Z,99721.02
2018-05-14T08:50:41.355Z,99721.45
2018-05-14T08:53:08.739Z,99717.64
2018-05-14T08:55:36.127Z,99723.80
2018-05-14T08:58:03.519Z,99727.14
2018-05-14T09:00:30.931Z,99715.05
2018-05-14T09:02:58.319Z,99713.50
2018-05-14T09:05:25.705Z,99716.74
2018-05-14T09:07:53.094Z,99716.12
2018-05-14T09:10:20.519Z,99715.88
2018-05-14T09:12:47.911Z,99718.06
2018-05-14T09:15:15.290Z,99716.70
2018-05-14T09:17:42.730Z,99717.75
2018-05-14T09:20:10.102Z,99724.17
2018-05-14T09:22:37.527Z,99716.52
2018-05-14T09:25:04.923Z,99718.97
2018-05-14T09:27:32.298Z,99727.71
2018-05-14T09:29:59.691Z,99722.81
2018-05-14T09:32:27.071Z,99725.96
2018-05-14T09:34:54.466Z,99726.72
2018-05-14T09:37:21.877Z,99725.01
2018-05-14T09:39:49.222Z,99724.16
2018-05-14T09:42:16.622Z,99722.44
2018-05-14T09:44:44.007Z,99728.66
2018-05-14T09:47:11.395Z,99721.49
2018-05-14T09:49:38.774Z,99723.71
2018-05-14T09:52:06.170Z,99730.08
2018-05-14T09:54:33.546Z,99727.01
2018-05-14T09:57:00.934Z,99718.30
2018-05-14T09:59:28.323Z,99719.48
2018-05-14T10:01:56.004Z,99717.98
2018-05-14T10:04:23.270Z,99717.22
2018-05-14T10:06:50.646Z,99714.70
2018-05-14T10:09:18.039Z,99717.38
2018-05-14T10:11:45.418Z,99717.11
2018-05-14T10:14:12.803Z,99716.20
2018-05-14T10:16:40.185Z,99710.11
2018-05-14T10:19:07.571Z,99710.44
2018-05-14T10:21:34.955Z,99715.22
2018-05-14T10:24:02.344Z,99715.31
2018-05-14T10:26:29.735Z,99711.25
2018-05-14T10:28:57.127Z,99711.39
2018-05-14T10:31:24.511Z,99708.31
2018-05-14T10:33:51.891Z,99713.28
2018-05-14T10:36:19.279Z,99707.32
2018-05-14T10:38:46.663Z,99709.81
2018-05-14T10:41:14.051Z,99708.08
2018-05-14T10:43:41.439Z,99707.38
2018-05-14T10:46:08.831Z,99705.94
2018-05-14T10:48:36.207Z,99704.91
2018-05-14T10:51:03.594Z,99714.22
2018-05-14T10:53:30.987Z,99703.78
2018-05-14T10:55:58.498Z,99705.37
2018-05-14T10:58:25.886Z,99707.22
2018-05-14T11:00:53.270Z,99699.92
2018-05-14T11:03:20.662Z,99702.86
2018-05-14T11:05:48.044Z,99708.88
2018-05-14T11:08:15.435Z,99706.64
2018-05-14T11:10:42.817Z,99703.37
2018-05-14T11:13:10.230Z,99694.03
2018-05-14T11:15:37.610Z,99702.86
2018-05-14T11:18:04.995Z,99696.41
2018-05-14T11:20:32.380Z,99694.45
2018-05-14T11:22:59.764Z,99691.36
2018-05-14T11:25:27.166Z,99694.01
2018-05-14T11:27:54.659Z,99698.41
2018-05-14T11:30:21.943Z,99699.13
2018-05-14T11:32:49.326Z,99700.98
2018-05-14T11:35:16.728Z,99698.19
2018-05-14T11:37:44.107Z,99697.13
2018-05-14T11:40:11.487Z,99702.14
2018-05-14T11:42:38.872Z,99706.73
2018-05-14T11:45:06.259Z,99705.42
2018-05-14T11:47:33.650Z,99700.36
2018-05-14T11:50:01.044Z,99699.82
2018-05-14T11:52:28.432Z,99704.36
2018-05-14T11:54:55.826Z,99699.09
2018-05-14T11:57:23.206Z,99705.09
2018-05-14T11:59:50.600Z,99702.36
2018-05-14T12:02:17.983Z,99708.98
2018-05-14T12:04:45.374Z,99707.01
2018-05-14T12:07:12.766Z,99698.92
2018-05-14T12:09:40.155Z,99702.06
2018-05-14T12:12:07.618Z,99699.67
2018-05-14T12:14:34.939Z,99707.23
2018-05-14T12:17:02.323Z,99706.97
2018-05-14T12:19:29.712Z,99706.62
2018-05-14T12:21:57.090Z,99692.73
2018-05-14T12:24:24.535Z,99700.69
2018-05-14T12:26:51.928Z,99700.84
2018-05-14T12:29:19.307Z,99698.64
2018-05-14T12:31:46.706Z,99708.11
2018-05-14T12:34:14.087Z,99707.27
2018-05-14T12:36:41.466Z,99700.61
2018-05-14T12:39:08.859Z,99697.83
2018-05-14T12:41:36.243Z,99699.02
2018-05-14T12:44:03.631Z,99697.25
2018-05-14T12:46:31.018Z,99688.44
2018-05-14T12:48:58.403Z,99698.81
2018-05-14T12:51:25.798Z,99695.67
2018-05-14T12:53:53.200Z,99693.33
2018-05-14T12:56:20.579Z,99685.06
2018-05-14T12:58:47.959Z,99688.89
2018-05-14T13:01:15.343Z,99679.88
2018-05-14T13:03:42.727Z,99691.66
2018-05-14T13:06:10.122Z,99682.32
2018-05-14T13:08:37.503Z,99693.58
2018-05-14T13:11:04.915Z,99688.91
2018-05-14T13:13:32.299Z,99687.55
2018-05-14T13:15:59.683Z,99683.57
2018-05-14T13:18:27.076Z,99684.47
2018-05-14T13:20:54.459Z,99686.50
2018-05-14T13:23:21.861Z,99686.39
2018-05-14T13:25:49.243Z,99689.84
2018-05-14T13:28:16.640Z,99694.21
2018-05-14T13:30:44.019Z,99698.39
2018-05-14T13:33:11.411Z,99700.48
2018-05-14T13:35:38.803Z,99698.99
2018-05-14T13:38:06.436Z,99700.20
2018-05-14T13:40:33.583Z,99698.98
2018-05-14T13:43:00.966Z,99696.80
2018-05-14T13:45:28.371Z,99697.06
2018-05-14T13:47:55.751Z,99688.59
2018-05-14T13:50:23.131Z,99690.37
2018-05-14T13:52:50.522Z,99687.84
2018-05-14T13:55:17.910Z,99683.23
2018-05-14T13:57:45.294Z,99678.90
2018-05-14T14:00:12.683Z,99671.16
2018-05-14T14:02:40.076Z,99681.84
2018-05-14T14:05:07.459Z,99674.84
2018-05-14T14:07:34.843Z,99678.36
2018-05-14T14:10:02.231Z,99685.93
2018-05-14T14:12:29.606Z,99671.47
2018-05-14T14:14:56.995Z,99666.28
2018-05-14T14:17:24.482Z,99671.69
2018-05-14T14:19:52.078Z,99678.95
2018-05-14T14:22:19.463Z,99677.66
2018-05-14T14:24:46.866Z,99678.27
2018-05-14T14:27:14.251Z,99678.78
2018-05-14T14:29:41.648Z,99676.58
2018-05-14T14:32:09.342Z,99674.06
2018-05-14T14:34:36.728Z,99667.05
2018-05-14T14:37:04.176Z,99666.34
2018-05-14T14:39:31.533Z,99665.37
2018-05-14T14:41:59.079Z,99671.77
2018-05-14T14:44:26.387Z,99670.96
2018-05-14T14:46:53.917Z,99675.67
2018-05-14T14:49:21.290Z,99667.83
2018-05-14T14:51:48.680Z,99674.16
2018-05-14T14:54:16.059Z,99677.64
2018-05-14T14:56:43.446Z,99677.20
2018-05-14T14:59:10.838Z,99682.68
2018-05-14T15:01:38.228Z,99674.54
2018-05-14T15:04:05.612Z,99676.97
2018-05-14T15:06:32.996Z,99667.24
2018-05-14T15:09:00.382Z,99667.72
2018-05-14T15:11:27.766Z,99668.84
2018-05-14T15:13:55.159Z,99666.70
2018-05-14T15:16:22.570Z,99675.06
2018-05-14T15:18:49.984Z,99666.94
2018-05-14T15:21:17.364Z,99670.48
2018-05-14T15:23:44.755Z,99675.84
2018-05-14T15:26:12.146Z,99672.95
2018-05-14T15:28:39.533Z,99667.20
2018-05-14T15:31:06.919Z,99674.56
2018-05-14T15:33:34.303Z,99670.81
2018-05-14T15:36:01.698Z,99671.38
2018-05-14T15:38:29.088Z,99665.25
2018-05-14T15:40:56.482Z,99671.30
2018-05-14T15:43:23.862Z,99661.34
2018-05-14T15:45:51.247Z,99668.10
2018-05-14T15:48:18.635Z,99662.62
2018-05-14T15:50:46.019Z,99656.97
2018-05-14T15:53:13.410Z,99659.29
2018-05-14T15:55:40.798Z,99664.77
2018-05-14T15:58:08.183Z,99665.44
2018-05-14T16:00:35.574Z,99665.22
2018-05-14T16:03:02.963Z,99659.21
2018-05-14T16:05:30.351Z,99665.34
2018-05-14T16:07:57.818Z,99663.66
2018-05-14T16:10:25.122Z,99656.20
2018-05-14T16:12:52.503Z,99656.92
2018-05-14T16:15:19.890Z,99660.95
2018-05-14T16:17:47.278Z,99670.62
2018-05-14T16:20:14.662Z,99660.58
2018-05-14T16:22:42.049Z,99665.80
2018-05-14T16:25:09.438Z,99675.63
2018-05-14T16:27:36.841Z,99671.05
2018-05-14T16:30:04.215Z,99672.73
2018-05-14T16:32:31.606Z,99677.62
2018-05-14T16:34:58.991Z,99678.11
2018-05-14T16:37:26.386Z,99672.65
2018-05-14T16:39:53.770Z,99676.67
2018-05-14T16:42:21.162Z,99679.89
2018-05-14T16:44:48.549Z,99674.50
2018-05-14T16:47:15.947Z,99675.08
2018-05-14T16:49:43.330Z,99675.08
2018-05-14T16:52:10.718Z,99668.56
2018-05-14T16:54:38.131Z,99682.04
2018-05-14T16:57:05.515Z,99683.02
2018-05-14T16:59:32.962Z,99683.27
2018-05-14T17:02:00.350Z,99681.26
2018-05-14T17:04:27.795Z,99683.34
2018-05-14T17:06:55.130Z,99679.17
2018-05-14T17:09:22.515Z,99686.64
2018-05-14T17:11:49.915Z,99695.12
2018-05-14T17:14:17.295Z,99698.83
2018-05-14T17:16:44.678Z,99695.45
2018-05-14T17:19:12.147Z,99690.33
2018-05-14T17:21:39.527Z,99691.22
2018-05-14T17:24:06.914Z,99695.45
2018-05-14T17:26:34.317Z,99692.22
2018-05-14T17:29:01.703Z,99694.16
2018-05-14T17:31:29.087Z,99696.41
2018-05-14T17:33:56.498Z,99698.16
2018-05-14T17:36:23.890Z,99694.53
2018-05-14T17:38:51.272Z,99697.84
2018-05-14T17:41:18.662Z,99702.00
2018-05-14T17:43:46.047Z,99698.86
2018-05-14T17:46:13.452Z,99691.14
2018-05-14T17:48:40.836Z,99694.22
2018-05-14T17:51:08.222Z,99700.08
2018-05-14T17:53:35.613Z,99699.00
2018-05-14T17:56:02.994Z,99702.79
2018-05-14T17:58:30.383Z,99704.30
2018-05-14T18:00:57.810Z,99707.95
2018-05-14T18:03:25.281Z,99706.93
2018-05-14T18:05:52.606Z,99709.80
2018-05-14T18:08:20.002Z,99705.05
2018-05-14T18:10:47.479Z,99702.66
2018-05-14T18:13:14.787Z,99705.61
2018-05-14T18:15:42.185Z,99714.67
2018-05-14T18:18:09.560Z,99707.59
2018-05-14T18:20:37.751Z,99709.34
2018-05-14T18:23:05.145Z,99706.84
2018-05-14T18:25:38.060Z,99711.36
2018-05-14T18:28:08.363Z,99715.47
2018-05-14T18:30:39.573Z,99709.97
2018-05-14T18:33:10.858Z,99709.44
2018-05-14T18:38:31.233Z,99714.17
2018-05-14T18:40:58.588Z,99713.63
2018-05-14T18:43:25.975Z,99722.38
2018-05-14T18:45:53.364Z,99729.31
2018-05-14T18:48:20.832Z,99723.95
2018-05-14T18:50:48.451Z,99728.69
2018-05-14T18:53:15.843Z,99737.78
2018-05-14T18:55:43.223Z,99738.41
2018-05-14T18:58:10.791Z,99738.38
2018-05-14T19:00:38.183Z,99748.73
2018-05-14T19:03:05.568Z,99752.36
2018-05-14T19:05:32.954Z,99750.64
2018-05-14T19:08:00.346Z,99756.44
2018-05-14T19:10:33.403Z,99754.42
2018-05-14T19:13:00.785Z,99755.91
2018-05-14T19:15:33.787Z,99766.33
2018-05-14T19:18:01.171Z,99757.55
2018-05-14T19:20:28.563Z,99766.03
2018-05-14T19:23:01.454Z,99768.59
2018-05-14T19:25:28.851Z,99770.80
2018-05-14T19:28:01.882Z,99772.19
2018-05-14T19:30:30.282Z,99777.78
2018-05-14T19:32:57.663Z,99771.66
2018-05-14T19:35:30.668Z,99771.53
2018-05-14T19:37:58.067Z,99782.29
2018-05-14T19:40:30.970Z,99779.81
2018-05-14T19:42:58.351Z,99779.37
2018-05-14T19:45:25.747Z,99782.98
2018-05-14T19:47:53.128Z,99792.05
2018-05-14T19:50:20.553Z,99794.17
2018-05-14T19:52:47.907Z,99791.55
2018-05-14T19:55:15.287Z,99794.48
2018-05-14T19:57:42.683Z,99792.67
2018-05-14T20:00:10.070Z,99797.59
2018-05-14T20:02:37.455Z,99796.63
2018-05-14T20:05:04.884Z,99801.13
2018-05-14T20:07:32.265Z,99804.97
2018-05-14T20:09:59.650Z,99803.36
2018-05-14T20:12:27.042Z,99812.88
2018-05-14T20:14:54.434Z,99812.47
2018-05-14T20:17:21.825Z,99818.61
2018-05-14T20:19:49.211Z,99816.92
2018-05-14T20:22:16.595Z,99816.16
2018-05-14T20:24:43.986Z,99818.43
2018-05-14T20:27:11.371Z,99823.47
2018-05-14T20:29:38.758Z,99829.23
2018-05-14T20:32:06.147Z,99825.97
2018-05-14T20:34:33.531Z,99832.19
2018-05-14T20:37:00.914Z,99831.03
2018-05-14T20:39:28.295Z,99831.89
2018-05-14T20:41:55.682Z,99831.31
2018-05-14T20:44:23.077Z,99845.30
2018-05-14T20:46:50.459Z,99847.92
2018-05-14T20:49:17.839Z,99848.78
2018-05-14T20:51:45.227Z,99854.38
2018-05-14T20:54:12.611Z,99861.71
2018-05-14T20:56:40.005Z,99858.23
2018-05-14T20:59:07.386Z,99865.02
2018-05-14T21:01:34.779Z,99864.55
2018-05-14T21:04:02.159Z,99869.16
2018-05-14T21:06:29.559Z,99870.05
2018-05-14T21:08:56.951Z,99878.95
2018-05-14T21:11:24.339Z,99876.84
2018-05-14T21:13:51.735Z,99894.87
2018-05-14T21:16:19.127Z,99886.22
2018-05-14T21:18:46.516Z,99889.09
2018-05-14T21:21:13.899Z,99888.86
2018-05-14T21:23:41.295Z,99898.36
2018-05-14T21:26:08.688Z,99896.51
2018-05-14T21:28:36.075Z,99900.43
2018-05-14T21:31:03.491Z,99896.56
2018-05-14T21:33:30.874Z,99900.38
2018-05-14T21:35:58.259Z,99896.89
2018-05-14T21:38:25.646Z,99903.70
2018-05-14T21:40:53.035Z,99904.53
2018-05-14T21:43:20.415Z,99911.08
2018-05-14T21:45:47.803Z,99908.53
2018-05-14T21:48:15.186Z,99916.80
2018-05-14T21:50:42.571Z,99913.56
2018-05-14T21:53:09.960Z,99914.55
2018-05-14T21:55:37.353Z,99915.86
2018-05-14T21:58:04.759Z,99915.33
2018-05-14T22:00:32.138Z,99915.11
2018-05-14T22:02:59.522Z,99917.25
2018-05-14T22:05:26.913Z,99921.46
2018-05-14T22:07:54.290Z,99919.47
2018-05-14T22:10:21.682Z,99912.73
2018-05-14T22:12:49.064Z,99917.47
2018-05-14T22:15:16.455Z,99920.33
2018-05-14T22:17:43.838Z,99922.91
2018-05-14T22:20:11.226Z,99924.55
2018-05-14T22:22:38.606Z,99925.52
2018-05-14T22:25:05.999Z,99925.93
2018-05-14T22:27:33.386Z,99927.72
2018-05-14T22:30:00.774Z,99923.77
2018-05-14T22:32:28.160Z,99925.68
2018-05-14T22:34:55.542Z,99925.41
2018-05-14T22:37:22.940Z,99933.67
2018-05-14T22:39:50.322Z,99926.52
2018-05-14T22:42:17.707Z,99931.00
2018-05-14T22:44:45.162Z,99926.55
2018-05-14T22:47:12.547Z,99925.33
2018-05-14T22:49:39.938Z,99924.96
2018-05-14T22:52:07.433Z,99922.78
2018-05-14T22:54:36.594Z,99927.52
2018-05-14T22:57:03.977Z,99928.58
2018-05-14T22:59:31.367Z,99929.12
2018-05-14T23:01:58.746Z,99923.86
2018-05-14T23:04:26.135Z,99920.76
2018-05-14T23:06:53.528Z,99921.02
2018-05-14T23:09:20.908Z,99920.33
2018-05-14T23:11:48.302Z,99916.42
2018-05-14T23:14:15.687Z,99916.69
2018-05-14T23:16:43.075Z,99920.06
2018-05-14T23:19:10.467Z,99918.70
2018-05-14T23:21:37.849Z,99919.13
2018-05-14T23:24:05.234Z,99923.16
2018-05-14T23:26:32.619Z,99920.46
2018-05-14T23:29:00.051Z,99922.09
2018-05-14T23:31:27.430Z,99921.94
2018-05-14T23:33:54.928Z,99923.29
2018-05-14T23:36:22.323Z,99915.98
2018-05-14T23:38:49.699Z,99921.36
2018-05-14T23:41:17.093Z,99913.14
2018-05-14T23:43:44.469Z,99915.28
2018-05-14T23:46:11.858Z,99916.22
2018-05-14T23:48:39.239Z,99912.85
2018-05-14T23:51:06.626Z,99908.28
2018-05-14T23:53:34.018Z,99912.47
2018-05-14T23:56:01.405Z,99907.89
2018-05-14T23:58:28.789Z,99910.03
